Time;durP1;ratioP1;P1;durP2;ratioP2;P2;SDS_P1;SDS_P2;PMS_P1;PMS_P2;Temp;Humidity;BMP_temperature;BMP_pressure;BME280_temperature;BME280_humidity;BME280_pressure;Samples;Min_cycle;Max_cycle;Signal;HPM_P1;HPM_P2
2022/10/09 00:03:16;;;;;;;7.82;2.28;;;;;;;6.39;92.40;102302.09;10159968;29;20063;-77
2022/10/09 00:08:17;;;;;;;9.75;2.08;;;;;;;6.37;92.67;102307.22;10168396;29;20051;-83
2022/10/09 00:13:19;;;;;;;11.15;2.33;;;;;;;6.38;92.69;102310.75;10171853;29;20055;-82
2022/10/09 00:18:21;;;;;;;7.82;2.13;;;;;;;6.37;92.65;102315.03;10164306;29;20056;-79
2022/10/09 00:23:23;;;;;;;7.45;2.13;;;;;;;6.30;92.88;102311.97;10148681;29;20051;-81
2022/10/09 00:28:28;;;;;;;6.68;1.80;;;;;;;6.25;92.69;102321.22;10163202;29;20056;-78
2022/10/09 00:33:30;;;;;;;11.48;1.92;;;;;;;6.26;92.89;102323.00;10171343;29;20134;-81
2022/10/09 00:38:31;;;;;;;11.45;2.40;;;;;;;6.21;92.53;102325.34;10158854;29;20063;-82
2022/10/09 00:43:46;;;;;;;9.77;2.08;;;;;;;6.16;92.92;102319.84;10177045;29;20099;-78
2022/10/09 00:48:56;;;;;;;9.50;2.17;;;;;;;6.17;93.19;102332.06;10167777;29;20040;-78
2022/10/09 00:53:59;;;;;;;12.45;2.45;;;;;;;6.14;93.12;102321.47;10176501;29;20067;-82
2022/10/09 00:59:02;;;;;;;11.50;2.30;;;;;;;6.10;93.45;102327.31;10177890;29;20051;-82
2022/10/09 01:04:03;;;;;;;11.93;2.30;;;;;;;6.04;93.36;102329.53;10157122;29;20127;-80
2022/10/09 01:09:12;;;;;;;5.78;2.33;;;;;;;6.00;93.34;102328.47;10160318;29;20063;-80
2022/10/09 01:14:26;;;;;;;8.27;2.33;;;;;;;5.96;93.41;102320.31;10174197;29;20055;-78
2022/10/09 01:19:48;;;;;;;10.35;2.53;;;;;;;5.89;93.48;102318.19;10132033;29;20055;-78
2022/10/09 01:25:04;;;;;;;12.07;2.50;;;;;;;5.87;93.48;102318.09;10144776;29;20051;-78
2022/10/09 01:30:09;;;;;;;10.32;2.47;;;;;;;5.84;93.61;102316.19;10177166;29;20048;-81
2022/10/09 01:35:14;;;;;;;4.95;1.77;;;;;;;5.78;93.56;102314.91;10144894;29;20103;-78
2022/10/09 01:40:17;;;;;;;10.82;2.72;;;;;;;5.76;93.64;102317.41;10173852;29;20060;-81
2022/10/09 01:45:18;;;;;;;11.95;2.45;;;;;;;5.69;93.56;102317.88;10173375;29;20114;-77
2022/10/09 01:50:33;;;;;;;13.68;2.55;;;;;;;5.65;93.64;102313.28;10169140;29;20056;-77
2022/10/09 01:56:00;;;;;;;8.27;2.40;;;;;;;5.63;93.66;102317.47;10167738;29;20115;-78
2022/10/09 02:01:11;;;;;;;14.40;2.53;;;;;;;5.57;93.81;102315.41;10161369;29;20066;-81
2022/10/09 02:06:18;;;;;;;8.30;2.45;;;;;;;5.46;93.74;102317.34;10162701;29;20056;-79
2022/10/09 02:11:21;;;;;;;4.38;2.15;;;;;;;5.35;93.69;102323.56;10170553;29;20052;-79
2022/10/09 02:16:37;;;;;;;7.95;3.08;;;;;;;5.29;93.68;102317.97;10158250;29;20650;-79
2022/10/09 02:21:53;;;;;;;15.57;2.70;;;;;;;5.23;93.83;102315.00;10183123;29;20110;-78
2022/10/09 02:26:57;;;;;;;7.95;2.78;;;;;;;5.19;93.73;102318.19;10161037;29;20068;-77
2022/10/09 02:31:59;;;;;;;11.55;2.95;;;;;;;5.11;93.71;102312.50;10175189;29;20044;-80
2022/10/09 02:37:01;;;;;;;6.63;2.67;;;;;;;5.05;93.72;102309.53;10164513;29;20063;-78
2022/10/09 02:42:04;;;;;;;10.43;2.95;;;;;;;5.00;93.81;102314.44;10159557;29;20082;-80
2022/10/09 02:47:05;;;;;;;6.82;2.47;;;;;;;4.96;93.67;102302.03;10166658;29;20185;-80
2022/10/09 02:52:08;;;;;;;11.10;3.08;;;;;;;4.89;93.60;102299.84;10173892;29;20832;-79
2022/10/09 02:57:10;;;;;;;8.50;2.60;;;;;;;4.81;93.69;102308.84;10172225;29;20056;-79
2022/10/09 03:02:11;;;;;;;10.75;2.70;;;;;;;4.76;93.53;102308.56;10177508;29;20053;-80
2022/10/09 03:07:13;;;;;;;14.00;3.15;;;;;;;4.70;93.71;102314.22;10181135;29;20133;-78
2022/10/09 03:12:20;;;;;;;8.05;2.78;;;;;;;4.69;93.70;102311.53;10182430;29;20060;-79
2022/10/09 03:17:21;;;;;;;7.95;2.58;;;;;;;4.65;93.53;102307.81;10167030;29;20055;-78
2022/10/09 03:22:23;;;;;;;6.32;2.78;;;;;;;4.59;93.50;102310.94;10167594;29;20147;-79
2022/10/09 03:27:25;;;;;;;8.57;2.70;;;;;;;4.54;93.69;102311.44;10163549;29;20486;-81
2022/10/09 03:32:26;;;;;;;6.22;2.67;;;;;;;4.52;93.81;102313.00;10163529;29;20059;-82
2022/10/09 03:37:28;;;;;;;6.05;2.78;;;;;;;4.46;93.67;102317.78;10162144;29;20576;-83
2022/10/09 03:42:30;;;;;;;8.05;2.35;;;;;;;4.41;93.59;102325.25;10171198;29;20048;-78
2022/10/09 03:47:32;;;;;;;9.10;2.55;;;;;;;4.36;93.60;102322.38;10182467;29;20059;-79
2022/10/09 03:52:35;;;;;;;5.03;2.17;;;;;;;4.36;93.44;102331.84;10161794;29;20056;-80
2022/10/09 03:57:37;;;;;;;8.50;2.58;;;;;;;4.35;93.50;102340.41;10144553;29;20052;-78
2022/10/09 04:02:38;;;;;;;6.53;2.75;;;;;;;4.31;93.39;102333.22;10164624;29;20047;-79
2022/10/09 04:07:40;;;;;;;6.78;2.63;;;;;;;4.24;93.27;102340.59;10173836;29;20417;-78
2022/10/09 04:12:42;;;;;;;5.38;2.35;;;;;;;4.21;93.53;102342.09;10172725;29;20044;-79
2022/10/09 04:17:43;;;;;;;10.90;2.90;;;;;;;4.22;93.48;102349.09;10171787;29;20072;-80
2022/10/09 04:22:45;;;;;;;7.80;2.95;;;;;;;4.25;93.29;102357.06;10175607;29;20056;-80
2022/10/09 04:27:47;;;;;;;10.02;3.03;;;;;;;4.24;93.54;102350.06;10170681;29;20051;-79
2022/10/09 04:32:49;;;;;;;7.95;2.85;;;;;;;4.23;93.62;102345.66;10165270;29;20063;-81
2022/10/09 04:37:52;;;;;;;9.70;3.00;;;;;;;4.18;93.54;102347.06;10181625;29;20419;-78
2022/10/09 04:42:55;;;;;;;6.47;2.33;;;;;;;4.12;93.60;102342.34;10160369;29;20063;-80
2022/10/09 04:47:56;;;;;;;10.38;2.90;;;;;;;4.12;93.57;102339.75;10174200;29;20123;-78
2022/10/09 04:52:58;;;;;;;9.38;3.08;;;;;;;4.18;93.61;102337.59;10171691;29;20108;-78
2022/10/09 04:58:00;;;;;;;6.72;2.90;;;;;;;4.18;93.52;102336.69;10178842;29;20513;-79
2022/10/09 05:03:02;;;;;;;7.45;2.72;;;;;;;4.18;93.54;102347.06;10161316;29;20111;-79
2022/10/09 05:08:04;;;;;;;6.70;2.83;;;;;;;4.15;93.84;102342.56;10172602;29;20052;-81
2022/10/09 05:13:06;;;;;;;5.95;2.65;;;;;;;4.18;93.83;102342.78;10155584;29;20056;-79
2022/10/09 05:18:07;;;;;;;8.75;3.10;;;;;;;4.21;93.66;102342.09;10177118;29;20126;-79
2022/10/09 05:23:09;;;;;;;12.32;3.13;;;;;;;4.24;93.82;102334.50;10161446;29;20092;-82
2022/10/09 05:28:11;;;;;;;8.02;3.22;;;;;;;4.23;93.84;102336.22;10138031;29;20533;-80
2022/10/09 05:33:13;;;;;;;8.10;3.05;;;;;;;4.24;93.85;102342.28;10170026;29;20560;-79
2022/10/09 05:38:14;;;;;;;9.82;3.38;;;;;;;4.19;94.25;102346.28;10167124;29;20052;-80
2022/10/09 05:43:16;;;;;;;6.60;3.00;;;;;;;4.13;94.00;102338.06;10147219;29;20051;-80
2022/10/09 05:48:18;;;;;;;5.88;3.25;;;;;;;4.13;94.19;102348.44;10149484;29;20763;-79
2022/10/09 05:53:20;;;;;;;8.73;3.55;;;;;;;4.10;93.89;102332.66;10152235;29;20045;-82
2022/10/09 05:58:22;;;;;;;7.80;3.38;;;;;;;4.07;93.80;102343.75;10175023;29;20106;-79
2022/10/09 06:03:23;;;;;;;9.15;3.50;;;;;;;4.07;93.99;102339.44;10170050;29;20497;-81
2022/10/09 06:08:25;;;;;;;10.98;3.53;;;;;;;4.11;94.09;102339.66;10170356;29;20068;-82
2022/10/09 06:13:27;;;;;;;8.48;3.40;;;;;;;4.11;94.19;102350.03;10177703;29;20058;-79
2022/10/09 06:18:29;;;;;;;7.40;3.22;;;;;;;4.11;93.96;102339.66;10175438;29;20087;-79
2022/10/09 06:23:31;;;;;;;9.43;3.47;;;;;;;4.16;94.06;102346.03;10167930;29;20044;-80
2022/10/09 06:28:34;;;;;;;7.00;3.42;;;;;;;4.19;94.05;102352.34;10180550;29;20068;-80
2022/10/09 06:33:38;;;;;;;10.13;3.53;;;;;;;4.25;94.13;102345.00;10165067;29;20051;-80
2022/10/09 06:38:40;;;;;;;15.55;4.18;;;;;;;4.34;94.20;102355.09;10185631;29;20071;-79
2022/10/09 06:43:47;;;;;;;11.75;3.83;;;;;;;4.50;94.09;102356.13;10178752;29;20044;-79
2022/10/09 06:48:48;;;;;;;11.35;4.18;;;;;;;4.73;94.26;102361.13;10182651;29;20055;-83
2022/10/09 06:53:52;;;;;;;7.82;4.07;;;;;;;5.07;94.33;102365.91;10171459;29;20068;-81
2022/10/09 06:58:54;;;;;;;15.57;4.35;;;;;;;5.39;94.47;102369.72;10166371;29;20063;-81
2022/10/09 07:04:02;;;;;;;11.65;4.18;;;;;;;5.62;94.85;102370.25;10157454;29;20085;-79
2022/10/09 07:09:07;;;;;;;14.45;4.55;;;;;;;5.87;95.04;102376.97;10177479;29;20484;-78
2022/10/09 07:14:11;;;;;;;11.98;4.43;;;;;;;6.12;95.46;102371.59;10174791;29;20048;-81
2022/10/09 07:19:14;;;;;;;14.93;4.90;;;;;;;6.67;95.34;102385.31;10153406;29;20505;-78
2022/10/09 07:24:19;;;;;;;13.38;5.47;;;;;;;11.65;95.44;102386.66;10158617;29;20053;-80
2022/10/09 07:29:20;;;;;;;16.80;6.25;;;;;;;15.22;88.77;102380.09;10175603;29;20045;-79
2022/10/09 07:34:22;;;;;;;16.05;6.60;;;;;;;16.83;78.39;102393.91;10155952;29;20505;-78
2022/10/09 07:39:24;;;;;;;17.10;5.45;;;;;;;16.88;72.23;102397.56;10170065;29;20048;-78
2022/10/09 07:44:26;;;;;;;11.02;3.83;;;;;;;17.23;67.43;102411.34;10141823;29;20572;-78
2022/10/09 07:49:27;;;;;;;15.77;4.57;;;;;;;17.25;65.31;102404.31;10174869;29;20107;-78
2022/10/09 07:54:29;;;;;;;9.60;3.92;;;;;;;15.84;64.37;102397.34;10161086;29;20079;-82
2022/10/09 07:59:30;;;;;;;10.60;3.60;;;;;;;14.64;65.91;102398.94;10164080;29;20056;-79
2022/10/09 08:04:32;;;;;;;9.70;4.30;;;;;;;13.88;68.37;102400.31;10175868;29;20465;-78
2022/10/09 08:09:34;;;;;;;14.68;4.13;;;;;;;13.30;69.90;102399.38;10156887;29;20055;-79
2022/10/09 08:14:36;;;;;;;10.95;3.78;;;;;;;12.95;71.18;102392.16;10169050;29;20519;-79
2022/10/09 08:19:38;;;;;;;12.18;4.35;;;;;;;13.42;72.00;102398.09;10159531;29;20044;-78
2022/10/09 08:24:39;;;;;;;10.25;3.47;;;;;;;12.91;72.20;102390.28;10164718;29;20115;-78
2022/10/09 08:29:41;;;;;;;10.10;3.60;;;;;;;13.30;73.18;102399.38;10174108;29;20635;-77
2022/10/09 08:34:44;;;;;;;10.80;3.28;;;;;;;14.01;72.98;102394.56;10160350;29;20580;-80
2022/10/09 08:39:46;;;;;;;15.23;3.75;;;;;;;13.83;72.53;102401.94;10136129;29;20070;-80
2022/10/09 08:44:49;;;;;;;8.40;3.60;;;;;;;13.96;72.57;102401.41;10161656;29;20128;-77
2022/10/09 08:50:11;;;;;;;8.00;3.80;;;;;;;14.27;72.24;102403.16;10180852;29;20047;-79
2022/10/09 08:55:21;;;;;;;12.02;3.95;;;;;;;14.67;71.94;102391.09;10159083;29;20123;-77
2022/10/09 09:00:26;;;;;;;11.82;3.53;;;;;;;14.50;71.45;102395.00;10163928;29;20048;-81
2022/10/09 09:05:40;;;;;;;8.38;2.67;;;;;;;14.67;71.44;102390.22;10172058;29;20040;-79
2022/10/09 09:10:53;;;;;;;12.23;2.90;;;;;;;15.02;70.87;102380.53;10148639;29;20508;-80
2022/10/09 09:15:59;;;;;;;12.00;3.20;;;;;;;14.99;70.57;102379.56;10144355;29;20582;-79
2022/10/09 09:21:09;;;;;;;8.00;3.38;;;;;;;14.96;70.24;102372.47;10163658;29;20059;-78
2022/10/09 09:26:18;;;;;;;15.48;2.90;;;;;;;15.37;70.78;102369.00;10138018;29;20052;-79
2022/10/09 09:31:28;;;;;;;14.15;3.35;;;;;;;15.23;69.79;102367.81;10158225;29;20056;-78
2022/10/09 09:36:34;;;;;;;11.75;3.03;;;;;;;14.80;69.79;102372.94;10167733;29;20057;-78
2022/10/09 09:41:35;;;;;;;12.10;2.78;;;;;;;14.39;70.35;102367.47;10167426;29;20048;-79
2022/10/09 09:46:38;;;;;;;6.88;1.95;;;;;;;14.61;70.87;102361.06;10175800;29;20131;-83
2022/10/09 09:51:40;;;;;;;11.43;1.80;;;;;;;14.71;70.00;102356.91;10170523;29;20420;-78
2022/10/09 09:56:44;;;;;;;8.00;1.80;;;;;;;14.15;70.18;102352.78;10169425;29;20082;-84
2022/10/09 10:02:23;;;;;;;7.57;1.83;;;;;;;14.44;70.65;102352.66;10153420;29;20071;-83
2022/10/09 10:07:29;;;;;;;5.43;1.52;;;;;;;14.30;70.20;102345.28;10169874;29;20060;-80
2022/10/09 10:12:31;;;;;;;8.13;2.05;;;;;;;13.96;70.14;102331.22;10168513;29;20049;-84
2022/10/09 10:17:35;;;;;;;5.53;1.73;;;;;;;13.88;70.52;102327.47;10164557;29;20055;-82
2022/10/09 10:22:37;;;;;;;7.22;1.55;;;;;;;14.01;70.22;102322.56;10170611;29;20048;-82
2022/10/09 10:27:41;;;;;;;7.18;1.40;;;;;;;14.35;70.43;102323.44;10151895;29;20052;-79
2022/10/09 10:33:16;;;;;;;8.02;1.55;;;;;;;15.13;69.51;102320.13;10160931;29;20154;-80
2022/10/09 10:38:41;;;;;;;7.63;1.70;;;;;;;14.61;68.30;102317.13;10156805;29;20071;-81
2022/10/09 10:43:47;;;;;;;2.42;0.90;;;;;;;14.96;68.36;102313.56;10153112;29;20056;-82
2022/10/09 10:48:50;;;;;;;5.22;1.13;;;;;;;14.82;66.69;102310.59;10171380;29;20419;-84
2022/10/09 10:54:29;;;;;;;6.28;1.90;;;;;;;14.61;66.41;102306.59;10164380;29;20467;-80
2022/10/09 10:59:38;;;;;;;4.53;1.20;;;;;;;14.93;65.80;102300.31;10156566;29;20053;-80
2022/10/09 11:04:49;;;;;;;9.85;1.40;;;;;;;15.12;65.71;102293.72;10169650;29;20059;-82
2022/10/09 11:10:00;;;;;;;5.38;1.30;;;;;;;15.24;64.39;102291.34;10153943;29;20076;-80
2022/10/09 11:15:18;;;;;;;8.73;1.63;;;;;;;15.51;64.17;102287.50;10158132;29;20046;-79
2022/10/09 11:20:53;;;;;;;7.05;1.38;;;;;;;15.87;63.84;102275.91;10155706;29;20051;-81
2022/10/09 11:26:22;;;;;;;8.77;1.73;;;;;;;16.13;63.10;102279.03;10172229;29;20056;-83
2022/10/09 11:31:49;;;;;;;6.72;1.88;;;;;;;15.85;61.95;102267.06;10161459;29;20067;-81
2022/10/09 11:36:52;;;;;;;9.90;2.20;;;;;;;16.05;61.89;102260.41;10162323;29;20043;-80
2022/10/09 11:41:54;;;;;;;8.85;2.28;;;;;;;16.05;62.18;102257.75;10158420;29;20104;-84
2022/10/09 11:47:14;;;;;;;5.70;1.60;;;;;;;16.18;61.64;102248.31;10170143;29;20082;-80
2022/10/09 11:52:53;;;;;;;8.77;1.25;;;;;;;16.24;61.02;102242.22;10145277;29;20458;-79
2022/10/09 11:58:07;;;;;;;5.55;1.63;;;;;;;16.26;60.25;102240.50;10140187;29;20058;-80
2022/10/09 12:03:28;;;;;;;6.35;1.30;;;;;;;16.26;59.25;102228.16;10167728;29;20062;-84
2022/10/09 12:08:31;;;;;;;5.93;1.63;;;;;;;15.87;59.41;102221.31;10146426;29;20064;-80
2022/10/09 12:13:35;;;;;;;5.80;1.35;;;;;;;16.23;59.84;102211.38;10173732;29;20737;-79
2022/10/09 12:18:45;;;;;;;7.97;1.27;;;;;;;16.10;59.39;102209.41;10156920;29;20047;-80
2022/10/09 12:23:49;;;;;;;5.07;1.42;;;;;;;15.76;59.49;102193.78;10171288;29;20044;-82
2022/10/09 12:28:57;;;;;;;10.52;1.75;;;;;;;15.96;59.79;102188.91;10154267;29;20091;-81
2022/10/09 12:34:04;;;;;;;5.35;1.70;;;;;;;15.74;60.30;102174.41;10166014;29;20481;-80
2022/10/09 12:39:19;;;;;;;10.23;1.65;;;;;;;15.98;59.74;102173.09;10173903;29;20106;-79
2022/10/09 12:44:29;;;;;;;9.95;1.45;;;;;;;16.13;59.12;102168.03;10167180;29;20077;-81
2022/10/09 12:49:31;;;;;;;6.65;1.40;;;;;;;16.17;58.97;102154.03;10170280;29;20052;-79
2022/10/09 12:54:40;;;;;;;7.88;1.30;;;;;;;16.25;58.74;102146.22;10162367;29;20052;-79
2022/10/09 12:59:44;;;;;;;5.20;1.27;;;;;;;16.23;58.25;102137.38;10158604;29;20048;-80
2022/10/09 13:04:58;;;;;;;2.50;0.90;;;;;;;16.10;57.84;102135.41;10162847;29;20139;-79
2022/10/09 13:10:26;;;;;;;6.93;1.20;;;;;;;15.80;57.52;102127.00;10157801;29;20051;-81
2022/10/09 13:15:33;;;;;;;5.40;1.10;;;;;;;15.76;57.40;102119.84;10145896;29;20049;-81
2022/10/09 13:20:35;;;;;;;4.80;1.00;;;;;;;16.03;57.47;102108.00;10174931;29;20054;-82
2022/10/09 13:25:41;;;;;;;5.30;1.17;;;;;;;15.90;56.74;102105.16;10170336;29;20056;-80
2022/10/09 13:30:42;;;;;;;5.93;1.35;;;;;;;15.88;57.40;102092.78;10167663;29;20103;-80
2022/10/09 13:35:44;;;;;;;4.85;1.23;;;;;;;15.92;56.97;102093.75;10164061;29;20060;-81
2022/10/09 13:40:46;;;;;;;3.22;1.17;;;;;;;16.07;57.15;102083.41;10163734;29;20120;-80
2022/10/09 13:45:48;;;;;;;4.20;0.93;;;;;;;15.98;57.04;102070.94;10165172;29;20049;-80
2022/10/09 13:50:49;;;;;;;3.35;1.13;;;;;;;15.88;56.58;102069.00;10140840;29;20107;-77
2022/10/09 13:55:52;;;;;;;5.97;1.15;;;;;;;15.72;56.36;102065.22;10165419;29;20052;-75
2022/10/09 14:00:57;;;;;;;5.80;1.60;;;;;;;15.60;56.28;102047.44;10159684;29;20405;-77
2022/10/09 14:06:01;;;;;;;5.68;1.00;;;;;;;15.55;56.79;102041.16;10135228;29;20048;-76
2022/10/09 14:11:03;;;;;;;5.53;1.20;;;;;;;15.45;56.67;102033.97;10157821;29;20059;-77
2022/10/09 14:16:06;;;;;;;6.40;1.00;;;;;;;15.35;56.77;102031.16;10170657;29;20056;-83
2022/10/09 14:21:14;;;;;;;4.03;1.00;;;;;;;15.33;57.51;102013.56;10178434;29;20055;-81
2022/10/09 14:26:16;;;;;;;3.90;1.00;;;;;;;15.31;56.90;102015.25;10179941;29;20048;-79
2022/10/09 14:31:18;;;;;;;2.03;0.90;;;;;;;15.31;56.75;102015.25;10172411;29;20100;-79
2022/10/09 14:36:19;;;;;;;3.83;0.93;;;;;;;15.20;56.75;101996.59;10170013;29;20055;-75
2022/10/09 14:41:22;;;;;;;4.82;1.02;;;;;;;15.03;56.37;101991.91;10159723;29;20180;-76
2022/10/09 14:46:25;;;;;;;4.50;1.10;;;;;;;14.96;56.42;101987.38;10140543;29;20059;-75
2022/10/09 14:51:26;;;;;;;3.65;0.75;;;;;;;14.89;56.12;101984.63;10135918;29;20103;-75
2022/10/09 14:56:28;;;;;;;3.53;1.27;;;;;;;14.84;56.09;101969.59;10150520;29;20421;-74
2022/10/09 15:01:33;;;;;;;3.28;0.85;;;;;;;14.85;56.33;101971.38;10139476;29;20296;-74
2022/10/09 15:06:35;;;;;;;6.15;1.10;;;;;;;14.81;56.75;101963.38;10163013;29;20080;-76
2022/10/09 15:11:36;;;;;;;7.22;1.15;;;;;;;14.74;56.94;101953.59;10180336;29;20056;-76
2022/10/09 15:16:38;;;;;;;2.10;0.93;;;;;;;14.76;57.67;101957.16;10172660;29;20103;-75
2022/10/09 15:21:40;;;;;;;6.20;1.08;;;;;;;14.66;57.47;101942.91;10172220;29;20056;-76
2022/10/09 15:26:41;;;;;;;3.28;0.88;;;;;;;14.58;57.70;101928.66;10155847;29;20473;-75
2022/10/09 15:31:43;;;;;;;1.58;0.88;;;;;;;14.54;57.76;101918.91;10179206;29;20127;-75
2022/10/09 15:36:45;;;;;;;4.43;1.00;;;;;;;14.45;57.87;101901.19;10175900;29;20044;-76
2022/10/09 15:41:47;;;;;;;2.30;0.90;;;;;;;14.44;58.31;101902.94;10157131;29;20060;-75
2022/10/09 15:46:49;;;;;;;3.40;1.08;;;;;;;14.32;58.80;101898.31;10164901;29;20059;-75
2022/10/09 15:51:50;;;;;;;4.13;1.05;;;;;;;14.27;58.88;101897.31;10166552;29;20576;-76
2022/10/09 15:56:53;;;;;;;5.20;0.98;;;;;;;14.24;59.05;101899.91;10168888;29;20057;-75
2022/10/09 16:01:55;;;;;;;6.03;1.40;;;;;;;14.17;59.63;101892.72;10180552;29;20060;-76
2022/10/09 16:06:57;;;;;;;3.85;1.10;;;;;;;14.05;60.20;101884.59;10175278;29;20052;-76
2022/10/09 16:11:58;;;;;;;4.63;1.50;;;;;;;13.95;60.66;101880.91;10162101;29;20052;-76
2022/10/09 16:17:00;;;;;;;6.07;1.48;;;;;;;13.82;61.13;101868.34;10167355;29;20056;-76
2022/10/09 16:22:05;;;;;;;4.15;1.15;;;;;;;13.61;61.99;101867.88;10173093;29;20071;-77
2022/10/09 16:27:14;;;;;;;4.18;1.35;;;;;;;13.46;62.78;101872.81;10146732;29;20055;-76
2022/10/09 16:32:16;;;;;;;10.23;1.67;;;;;;;13.24;63.46;101866.13;10163332;29;20063;-76
2022/10/09 16:37:18;;;;;;;7.80;1.75;;;;;;;13.02;64.09;101856.88;10166465;29;20108;-77
2022/10/09 16:42:19;;;;;;;4.03;1.58;;;;;;;12.71;64.97;101861.34;10170499;29;20055;-77
2022/10/09 16:47:21;;;;;;;6.80;1.52;;;;;;;12.52;65.91;101863.50;10162072;29;20047;-76
2022/10/09 16:52:23;;;;;;;3.90;1.60;;;;;;;12.36;66.51;101862.22;10160596;29;20047;-77
2022/10/09 16:57:25;;;;;;;6.25;2.08;;;;;;;12.16;67.23;101866.00;10151265;29;20165;-76
2022/10/09 17:02:27;;;;;;;7.03;2.20;;;;;;;11.88;67.97;101854.72;10171686;29;20083;-77
2022/10/09 17:07:29;;;;;;;6.30;2.05;;;;;;;11.59;68.92;101854.75;10137250;29;20112;-77
2022/10/09 17:12:31;;;;;;;9.65;2.67;;;;;;;11.37;70.00;101855.84;10157003;29;20043;-76
2022/10/09 17:17:33;;;;;;;8.18;2.53;;;;;;;11.12;70.77;101851.53;10180090;29;20551;-76
2022/10/09 17:22:35;;;;;;;5.68;2.10;;;;;;;10.99;71.49;101842.41;10167522;29;20052;-77
2022/10/09 17:27:36;;;;;;;5.07;1.90;;;;;;;10.87;71.88;101840.28;10162276;29;20520;-77
2022/10/09 17:32:38;;;;;;;9.63;1.75;;;;;;;10.85;71.84;101843.69;10147156;29;20052;-76
2022/10/09 17:37:40;;;;;;;7.20;1.70;;;;;;;10.76;71.83;101837.31;10174222;29;20052;-76
2022/10/09 17:42:42;;;;;;;4.82;1.50;;;;;;;10.71;72.07;101830.13;10169485;29;20052;-76
2022/10/09 17:47:43;;;;;;;7.45;1.85;;;;;;;10.64;72.23;101833.38;10174062;29;20052;-77
2022/10/09 17:52:45;;;;;;;5.38;1.48;;;;;;;10.59;72.39;101823.63;10152963;29;20040;-76
2022/10/09 17:57:47;;;;;;;7.15;2.15;;;;;;;10.57;72.63;101819.22;10170841;29;20052;-76
2022/10/09 18:02:49;;;;;;;7.25;1.85;;;;;;;10.49;72.95;101810.19;10170520;29;20082;-76
2022/10/09 18:07:51;;;;;;;9.07;1.77;;;;;;;10.41;73.27;101812.56;10163560;29;20128;-76
2022/10/09 18:12:53;;;;;;;6.13;1.70;;;;;;;10.42;73.37;101807.38;10157885;29;20075;-76
2022/10/09 18:17:55;;;;;;;5.25;1.60;;;;;;;10.33;73.60;101799.19;10164996;29;20090;-77
2022/10/09 18:22:57;;;;;;;8.95;2.28;;;;;;;10.19;73.82;101803.03;10174826;29;20059;-76
2022/10/09 18:27:58;;;;;;;4.43;1.92;;;;;;;10.00;74.10;101802.38;10144715;29;20505;-77
2022/10/09 18:33:00;;;;;;;5.70;1.73;;;;;;;9.89;74.59;101796.78;10168565;29;20072;-76
2022/10/09 18:38:02;;;;;;;5.57;2.15;;;;;;;9.75;75.07;101804.94;10166979;29;20538;-77
2022/10/09 18:43:04;;;;;;;6.65;1.90;;;;;;;9.64;75.42;101791.50;10167168;29;20571;-77
2022/10/09 18:48:07;;;;;;;5.63;1.95;;;;;;;9.60;75.69;101800.94;10180344;29;20056;-76
2022/10/09 18:53:09;;;;;;;6.30;1.95;;;;;;;9.47;76.04;101796.06;10157903;29;20059;-77
2022/10/09 18:58:13;;;;;;;7.93;2.50;;;;;;;9.30;76.37;101784.97;10177942;29;20433;-77
2022/10/09 19:03:14;;;;;;;5.20;1.92;;;;;;;9.15;76.45;101780.06;10148766;29;20044;-77
2022/10/09 19:08:16;;;;;;;4.57;1.88;;;;;;;9.00;77.19;101775.13;10167392;29;20555;-77
2022/10/09 19:13:19;;;;;;;9.57;2.33;;;;;;;8.93;77.60;101778.31;10174093;29;20052;-76
2022/10/09 19:18:21;;;;;;;5.50;2.05;;;;;;;8.86;77.62;101777.19;10172951;29;20039;-76
2022/10/09 19:23:23;;;;;;;6.18;2.08;;;;;;;8.78;78.22;101769.06;10177238;29;20058;-77
2022/10/09 19:28:29;;;;;;;7.15;2.05;;;;;;;8.67;78.48;101758.16;10179832;29;20055;-76
2022/10/09 19:33:31;;;;;;;13.40;1.88;;;;;;;8.54;78.57;101760.22;10174393;29;20055;-76
2022/10/09 19:38:33;;;;;;;10.95;2.28;;;;;;;8.38;79.02;101759.56;10176839;29;20520;-76
2022/10/09 19:43:36;;;;;;;7.57;2.92;;;;;;;8.22;79.25;101747.56;10167098;29;20428;-76
2022/10/09 19:48:37;;;;;;;9.75;2.78;;;;;;;8.06;79.77;101752.97;10175125;29;20059;-76
2022/10/09 19:53:41;;;;;;;9.65;3.17;;;;;;;7.93;80.13;101752.44;10158902;29;20405;-76
2022/10/09 19:58:44;;;;;;;13.60;3.53;;;;;;;7.82;80.40;101742.38;10156264;29;20063;-77
2022/10/09 20:03:47;;;;;;;13.13;5.10;;;;;;;7.72;80.83;101735.88;10171020;29;20067;-76
2022/10/09 20:08:49;;;;;;;17.10;5.60;;;;;;;7.61;80.98;101731.06;10162880;29;20052;-76
2022/10/09 20:13:51;;;;;;;21.80;8.07;;;;;;;7.54;81.19;101725.53;10164493;29;20073;-76
2022/10/09 20:19:00;;;;;;;30.88;10.00;;;;;;;7.49;81.59;101709.69;10173087;29;20126;-77
2022/10/09 20:24:02;;;;;;;24.25;9.80;;;;;;;7.50;81.86;101716.66;10169227;29;20472;-77
2022/10/09 20:29:05;;;;;;;21.50;8.20;;;;;;;7.42;82.11;101712.84;10143043;29;20499;-76
2022/10/09 20:34:07;;;;;;;21.70;6.35;;;;;;;7.40;82.51;101704.03;10164660;29;20113;-76
2022/10/09 20:39:14;;;;;;;10.93;3.90;;;;;;;7.44;82.81;101703.34;10161590;29;20725;-76
2022/10/09 20:44:15;;;;;;;10.68;3.38;;;;;;;7.40;83.06;101704.03;10168453;29;20071;-76
2022/10/09 20:49:17;;;;;;;11.02;2.67;;;;;;;7.45;83.43;101694.72;10159654;29;20914;-77
2022/10/09 20:54:20;;;;;;;3.30;2.00;;;;;;;7.59;83.69;101698.81;10159685;29;20500;-77
2022/10/09 20:59:22;;;;;;;5.95;1.83;;;;;;;7.57;83.76;101697.88;10152021;29;20058;-77
2022/10/09 21:04:23;;;;;;;6.57;1.85;;;;;;;7.48;83.69;101689.66;10169869;29;20414;-75
2022/10/09 21:09:25;;;;;;;8.05;1.98;;;;;;;7.44;83.81;101672.97;10155722;29;20155;-76
2022/10/09 21:14:34;;;;;;;6.28;1.98;;;;;;;7.37;83.73;101667.41;10151321;29;20044;-75
2022/10/09 21:19:36;;;;;;;7.78;2.15;;;;;;;7.25;83.87;101673.88;10150642;29;20063;-75
2022/10/09 21:24:38;;;;;;;7.43;2.15;;;;;;;7.06;83.92;101664.34;10172626;29;20048;-76
2022/10/09 21:29:40;;;;;;;4.97;2.05;;;;;;;6.90;83.87;101659.25;10158293;29;20063;-76
2022/10/09 21:34:41;;;;;;;3.17;1.77;;;;;;;6.72;84.18;101657.59;10154440;29;20092;-76
2022/10/09 21:39:43;;;;;;;9.30;2.47;;;;;;;6.55;84.08;101643.78;10146559;29;20083;-76
2022/10/09 21:44:45;;;;;;;5.45;2.10;;;;;;;6.47;84.25;101650.34;10152411;29;20064;-76
2022/10/09 21:49:47;;;;;;;6.97;2.30;;;;;;;6.32;84.30;101637.50;10176512;29;20107;-75
2022/10/09 21:54:48;;;;;;;4.88;2.05;;;;;;;6.22;84.48;101636.97;10137769;29;20055;-76
2022/10/09 21:59:50;;;;;;;4.95;2.13;;;;;;;6.11;84.67;101629.56;10170420;29;20067;-76
2022/10/09 22:04:55;;;;;;;6.95;2.28;;;;;;;6.04;84.88;101627.47;10164946;29;20052;-76
2022/10/09 22:09:57;;;;;;;7.15;2.35;;;;;;;5.93;84.99;101618.19;10163394;29;20064;-76
2022/10/09 22:14:59;;;;;;;8.00;1.98;;;;;;;5.86;85.18;101623.94;10179413;29;20427;-76
2022/10/09 22:20:01;;;;;;;9.43;2.28;;;;;;;5.76;85.13;101615.66;10179480;29;20562;-76
2022/10/09 22:25:03;;;;;;;12.38;2.70;;;;;;;5.72;85.45;101608.53;10160566;29;20132;-76
2022/10/09 22:30:06;;;;;;;6.40;2.20;;;;;;;5.68;85.47;101596.19;10155954;29;20551;-75
2022/10/09 22:35:08;;;;;;;8.05;1.95;;;;;;;5.59;85.54;101586.22;10176301;29;20495;-76
2022/10/09 22:40:09;;;;;;;4.28;1.70;;;;;;;5.59;85.76;101580.16;10151858;29;20110;-76
2022/10/09 22:45:11;;;;;;;5.10;1.75;;;;;;;5.59;85.96;101567.16;10153891;29;20060;-76
2022/10/09 22:50:13;;;;;;;6.75;2.15;;;;;;;5.60;86.01;101566.31;10172739;29;20120;-76
2022/10/09 22:55:15;;;;;;;5.80;2.13;;;;;;;5.69;86.19;101551.22;10170557;29;20124;-76
2022/10/09 23:00:17;;;;;;;4.43;1.70;;;;;;;5.83;86.75;101547.56;10180636;29;20056;-76
2022/10/09 23:05:19;;;;;;;5.63;1.83;;;;;;;5.96;86.78;101545.56;10147938;29;20689;-76
2022/10/09 23:10:20;;;;;;;11.38;1.83;;;;;;;6.02;86.88;101530.31;10177050;29;20060;-74
2022/10/09 23:15:22;;;;;;;8.65;2.17;;;;;;;6.14;86.99;101523.06;10171403;29;20048;-76
2022/10/09 23:20:23;;;;;;;3.42;1.38;;;;;;;6.21;87.18;101518.16;10172339;29;20139;-76
2022/10/09 23:25:25;;;;;;;6.97;1.70;;;;;;;6.25;87.01;101517.50;10178971;29;20862;-75